sensor_id;sensor_type;location;lat;lon;timestamp;pressure;altitude;pressure_sealevel;temperature;humidity
74242;BME280;62599;49.146;10.426;2023-04-24T00:00:55;94776.22;;;8.28;100.00
74242;BME280;62599;49.146;10.426;2023-04-24T00:03:26;94766.63;;;8.27;100.00
74242;BME280;62599;49.146;10.426;2023-04-24T00:05:53;94761.94;;;8.24;100.00
74242;BME280;62599;49.146;10.426;2023-04-24T00:08:19;94769.97;;;8.24;100.00
74242;BME280;62599;49.146;10.426;2023-04-24T00:10:44;94772.22;;;8.22;100.00
74242;BME280;62599;49.146;10.426;2023-04-24T00:13:10;94762.28;;;8.22;100.00
74242;BME280;62599;49.146;10.426;2023-04-24T00:15:35;94756.91;;;8.22;100.00
74242;BME280;62599;49.146;10.426;2023-04-24T00:18:01;94759.25;;;8.24;100.00
74242;BME280;62599;49.146;10.426;2023-04-24T00:20:27;94765.84;;;8.26;100.00
74242;BME280;62599;49.146;10.426;2023-04-24T00:22:54;94754.44;;;8.29;100.00
74242;BME280;62599;49.146;10.426;2023-04-24T00:25:20;94749.06;;;8.29;100.00
74242;BME280;62599;49.146;10.426;2023-04-24T00:27:45;94728.19;;;8.23;100.00
74242;BME280;62599;49.146;10.426;2023-04-24T00:30:11;94753.66;;;8.29;100.00
74242;BME280;62599;49.146;10.426;2023-04-24T00:32:36;94753.75;;;8.32;100.00
74242;BME280;62599;49.146;10.426;2023-04-24T00:35:02;94749.94;;;8.33;100.00
74242;BME280;62599;49.146;10.426;2023-04-24T00:37:27;94755.31;;;8.33;100.00
74242;BME280;62599;49.146;10.426;2023-04-24T00:39:53;94761.25;;;8.27;100.00
74242;BME280;62599;49.146;10.426;2023-04-24T00:42:19;94758.91;;;8.25;100.00
74242;BME280;62599;49.146;10.426;2023-04-24T00:44:44;94759.59;;;8.22;100.00
74242;BME280;62599;49.146;10.426;2023-04-24T00:47:11;94746.59;;;8.24;100.00
74242;BME280;62599;49.146;10.426;2023-04-24T00:49:37;94751.09;;;8.20;100.00
74242;BME280;62599;49.146;10.426;2023-04-24T00:52:03;94757.94;;;8.17;100.00
74242;BME280;62599;49.146;10.426;2023-04-24T00:54:32;94763.63;;;8.16;100.00
74242;BME280;62599;49.146;10.426;2023-04-24T00:56:58;94766.97;;;8.13;100.00
74242;BME280;62599;49.146;10.426;2023-04-24T00:59:23;94761.63;;;8.13;100.00
74242;BME280;62599;49.146;10.426;2023-04-24T01:01:48;94761.19;;;8.11;100.00
74242;BME280;62599;49.146;10.426;2023-04-24T01:04:14;94759.94;;;8.08;100.00
74242;BME280;62599;49.146;10.426;2023-04-24T01:06:41;94753.34;;;8.06;100.00
74242;BME280;62599;49.146;10.426;2023-04-24T01:09:09;94761.28;;;8.02;100.00
74242;BME280;62599;49.146;10.426;2023-04-24T01:11:36;94758.28;;;8.04;100.00
74242;BME280;62599;49.146;10.426;2023-04-24T01:14:02;94756.03;;;8.06;100.00
74242;BME280;62599;49.146;10.426;2023-04-24T01:16:27;94762.53;;;8.05;100.00
74242;BME280;62599;49.146;10.426;2023-04-24T01:18:53;94763.66;;;8.04;100.00
74242;BME280;62599;49.146;10.426;2023-04-24T01:21:19;94766.09;;;8.09;100.00
74242;BME280;62599;49.146;10.426;2023-04-24T01:23:46;94754.59;;;8.08;100.00
74242;BME280;62599;49.146;10.426;2023-04-24T01:26:16;94757.63;;;8.07;100.00
74242;BME280;62599;49.146;10.426;2023-04-24T01:28:42;94751.03;;;8.04;100.00
74242;BME280;62599;49.146;10.426;2023-04-24T01:31:07;94745.31;;;8.06;100.00
74242;BME280;62599;49.146;10.426;2023-04-24T01:33:33;94747.31;;;8.09;100.00
74242;BME280;62599;49.146;10.426;2023-04-24T01:35:58;94739.16;;;8.05;100.00
74242;BME280;62599;49.146;10.426;2023-04-24T01:38:24;94738.84;;;8.07;100.00
74242;BME280;62599;49.146;10.426;2023-04-24T01:40:51;94733.47;;;8.07;100.00
74242;BME280;62599;49.146;10.426;2023-04-24T01:43:16;94736.94;;;8.07;100.00
74242;BME280;62599;49.146;10.426;2023-04-24T01:45:43;94735.38;;;8.06;100.00
74242;BME280;62599;49.146;10.426;2023-04-24T01:48:08;94724.56;;;8.03;100.00
74242;BME280;62599;49.146;10.426;2023-04-24T01:50:33;94730.69;;;8.03;100.00
74242;BME280;62599;49.146;10.426;2023-04-24T01:52:59;94723.75;;;8.02;100.00
74242;BME280;62599;49.146;10.426;2023-04-24T01:55:25;94727.91;;;8.00;100.00
74242;BME280;62599;49.146;10.426;2023-04-24T01:57:52;94724.44;;;7.99;100.00
74242;BME280;62599;49.146;10.426;2023-04-24T02:00:19;94723.31;;;8.00;100.00
74242;BME280;62599;49.146;10.426;2023-04-24T02:03:14;94724.44;;;7.99;100.00
74242;BME280;62599;49.146;10.426;2023-04-24T02:06:15;94718.97;;;7.95;100.00
74242;BME280;62599;49.146;10.426;2023-04-24T02:09:58;94722.22;;;7.89;100.00
74242;BME280;62599;49.146;10.426;2023-04-24T02:43:53;94702.25;;;7.74;100.00
74242;BME280;62599;49.146;10.426;2023-04-24T02:47:21;94703.72;;;7.71;100.00
74242;BME280;62599;49.146;10.426;2023-04-24T02:53:33;94694.22;;;7.62;100.00
74242;BME280;62599;49.146;10.426;2023-04-24T02:55:59;94699.56;;;7.62;100.00
74242;BME280;62599;49.146;10.426;2023-04-24T02:58:24;94698.59;;;7.54;100.00
74242;BME280;62599;49.146;10.426;2023-04-24T03:00:53;94694.69;;;7.52;100.00
74242;BME280;62599;49.146;10.426;2023-04-24T03:03:19;94693.78;;;7.47;100.00
74242;BME280;62599;49.146;10.426;2023-04-24T03:05:44;94708.31;;;7.46;100.00
74242;BME280;62599;49.146;10.426;2023-04-24T03:08:10;94706.75;;;7.45;100.00
74242;BME280;62599;49.146;10.426;2023-04-24T03:10:36;94711.66;;;7.43;100.00
74242;BME280;62599;49.146;10.426;2023-04-24T03:13:01;94707.41;;;7.42;100.00
74242;BME280;62599;49.146;10.426;2023-04-24T03:15:27;94716.13;;;7.39;100.00
74242;BME280;62599;49.146;10.426;2023-04-24T03:17:52;94708.06;;;7.39;100.00
74242;BME280;62599;49.146;10.426;2023-04-24T03:20:18;94705.75;;;7.38;100.00
74242;BME280;62599;49.146;10.426;2023-04-24T03:22:43;94708.75;;;7.36;100.00
74242;BME280;62599;49.146;10.426;2023-04-24T03:25:09;94704.75;;;7.30;100.00
74242;BME280;62599;49.146;10.426;2023-04-24T03:27:35;94700.81;;;7.28;100.00
74242;BME280;62599;49.146;10.426;2023-04-24T03:30:00;94707.41;;;7.30;100.00
74242;BME280;62599;49.146;10.426;2023-04-24T03:32:26;94701.50;;;7.24;100.00
74242;BME280;62599;49.146;10.426;2023-04-24T03:34:52;94704.63;;;7.27;100.00
74242;BME280;62599;49.146;10.426;2023-04-24T03:37:17;94705.41;;;7.27;100.00
74242;BME280;62599;49.146;10.426;2023-04-24T03:39:43;94710.31;;;7.25;100.00
74242;BME280;62599;49.146;10.426;2023-04-24T03:42:08;94711.44;;;7.24;100.00
74242;BME280;62599;49.146;10.426;2023-04-24T03:44:34;94698.03;;;7.24;100.00
74242;BME280;62599;49.146;10.426;2023-04-24T03:47:00;94708.75;;;7.24;100.00
74242;BME280;62599;49.146;10.426;2023-04-24T03:49:25;94698.34;;;7.22;100.00
74242;BME280;62599;49.146;10.426;2023-04-24T03:51:51;94712.53;;;7.23;100.00
74242;BME280;62599;49.146;10.426;2023-04-24T03:54:18;94703.72;;;7.22;100.00
74242;BME280;62599;49.146;10.426;2023-04-24T03:56:43;94706.72;;;7.21;100.00
74242;BME280;62599;49.146;10.426;2023-04-24T03:59:09;94706.72;;;7.21;100.00
74242;BME280;62599;49.146;10.426;2023-04-24T04:01:34;94711.31;;;7.20;100.00
74242;BME280;62599;49.146;10.426;2023-04-24T04:04:03;94712.44;;;7.19;100.00
74242;BME280;62599;49.146;10.426;2023-04-24T04:06:28;94714.34;;;7.19;100.00
74242;BME280;62599;49.146;10.426;2023-04-24T04:08:53;94705.06;;;7.16;100.00
74242;BME280;62599;49.146;10.426;2023-04-24T04:11:19;94706.97;;;7.16;100.00
74242;BME280;62599;49.146;10.426;2023-04-24T04:13:45;94696.25;;;7.16;100.00
74242;BME280;62599;49.146;10.426;2023-04-24T04:16:12;94698.94;;;7.16;100.00
74242;BME280;62599;49.146;10.426;2023-04-24T04:18:38;94697.34;;;7.15;100.00
74242;BME280;62599;49.146;10.426;2023-04-24T04:21:03;94703.03;;;7.13;100.00
74242;BME280;62599;49.146;10.426;2023-04-24T04:23:29;94700.38;;;7.13;100.00
74242;BME280;62599;49.146;10.426;2023-04-24T04:25:54;94701.03;;;7.10;100.00
74242;BME280;62599;49.146;10.426;2023-04-24T04:28:20;94709.84;;;7.11;100.00
74242;BME280;62599;49.146;10.426;2023-04-24T04:30:46;94713.28;;;7.11;100.00
74242;BME280;62599;49.146;10.426;2023-04-24T04:33:15;94714.22;;;7.15;100.00
74242;BME280;62599;49.146;10.426;2023-04-24T04:35:41;94714.34;;;7.19;100.00
74242;BME280;62599;49.146;10.426;2023-04-24T04:38:07;94720.13;;;7.21;100.00
74242;BME280;62599;49.146;10.426;2023-04-24T04:40:33;94721.34;;;7.23;100.00
74242;BME280;62599;49.146;10.426;2023-04-24T04:42:58;94722.56;;;7.26;100.00
74242;BME280;62599;49.146;10.426;2023-04-24T04:45:24;94714.34;;;7.31;100.00
74242;BME280;62599;49.146;10.426;2023-04-24T04:47:49;94728.63;;;7.35;100.00
74242;BME280;62599;49.146;10.426;2023-04-24T04:50:14;94730.28;;;7.40;100.00
74242;BME280;62599;49.146;10.426;2023-04-24T04:52:41;94727.84;;;7.47;100.00
74242;BME280;62599;49.146;10.426;2023-04-24T04:55:07;94723.94;;;7.57;100.00
74242;BME280;62599;49.146;10.426;2023-04-24T04:57:32;94722.59;;;7.63;100.00
74242;BME280;62599;49.146;10.426;2023-04-24T04:59:58;94724.38;;;7.71;100.00
74242;BME280;62599;49.146;10.426;2023-04-24T05:02:23;94726.91;;;7.80;100.00
74242;BME280;62599;49.146;10.426;2023-04-24T05:04:49;94716.75;;;7.85;100.00
74242;BME280;62599;49.146;10.426;2023-04-24T05:07:14;94729.81;;;7.87;100.00
74242;BME280;62599;49.146;10.426;2023-04-24T05:09:39;94725.69;;;7.89;100.00
74242;BME280;62599;49.146;10.426;2023-04-24T05:12:05;94729.03;;;7.86;100.00
74242;BME280;62599;49.146;10.426;2023-04-24T05:14:33;94728.63;;;7.84;100.00
74242;BME280;62599;49.146;10.426;2023-04-24T05:16:58;94727.69;;;7.80;100.00
74242;BME280;62599;49.146;10.426;2023-04-24T05:19:25;94740.00;;;7.81;100.00
74242;BME280;62599;49.146;10.426;2023-04-24T05:21:50;94737.66;;;7.80;100.00
74242;BME280;62599;49.146;10.426;2023-04-24T05:24:15;94740.00;;;7.81;100.00
74242;BME280;62599;49.146;10.426;2023-04-24T05:26:41;94745.00;;;7.83;100.00
74242;BME280;62599;49.146;10.426;2023-04-24T05:29:06;94746.69;;;7.87;100.00
74242;BME280;62599;49.146;10.426;2023-04-24T05:31:32;94751.16;;;7.95;100.00
74242;BME280;62599;49.146;10.426;2023-04-24T05:33:57;94755.38;;;8.09;100.00
74242;BME280;62599;49.146;10.426;2023-04-24T05:36:22;94754.03;;;8.15;100.00
74242;BME280;62599;49.146;10.426;2023-04-24T05:38:48;94754.13;;;8.18;100.00
74242;BME280;62599;49.146;10.426;2023-04-24T05:41:13;94772.56;;;8.20;100.00
74242;BME280;62599;49.146;10.426;2023-04-24T05:43:42;94774.13;;;8.21;100.00
74242;BME280;62599;49.146;10.426;2023-04-24T05:46:07;94777.25;;;8.23;100.00
74242;BME280;62599;49.146;10.426;2023-04-24T05:48:33;94795.59;;;8.21;100.00
74242;BME280;62599;49.146;10.426;2023-04-24T05:50:59;94800.50;;;8.19;100.00
74242;BME280;62599;49.146;10.426;2023-04-24T05:53:24;94796.94;;;8.15;100.00
74242;BME280;62599;49.146;10.426;2023-04-24T05:55:50;94794.38;;;8.06;100.00
74242;BME280;62599;49.146;10.426;2023-04-24T05:58:15;94808.56;;;8.07;100.00
74242;BME280;62599;49.146;10.426;2023-04-24T06:00:41;94806.00;;;7.98;100.00
74242;BME280;62599;49.146;10.426;2023-04-24T06:03:08;94806.56;;;8.04;100.00
74242;BME280;62599;49.146;10.426;2023-04-24T06:05:33;94810.38;;;8.03;100.00
74242;BME280;62599;49.146;10.426;2023-04-24T06:08:00;94805.22;;;8.10;100.00
74242;BME280;62599;49.146;10.426;2023-04-24T06:10:25;94817.94;;;8.13;100.00
74242;BME280;62599;49.146;10.426;2023-04-24T06:12:50;94809.56;;;8.14;100.00
74242;BME280;62599;49.146;10.426;2023-04-24T06:15:16;94813.47;;;8.17;100.00
74242;BME280;62599;49.146;10.426;2023-04-24T06:17:41;94808.75;;;8.26;100.00
74242;BME280;62599;49.146;10.426;2023-04-24T06:20:07;94809.41;;;8.48;100.00
74242;BME280;62599;49.146;10.426;2023-04-24T06:22:36;94803.03;;;8.52;100.00
74242;BME280;62599;49.146;10.426;2023-04-24T06:25:02;94822.59;;;8.65;100.00
74242;BME280;62599;49.146;10.426;2023-04-24T06:27:27;94817.88;;;8.62;100.00
74242;BME280;62599;49.146;10.426;2023-04-24T06:29:53;94817.22;;;8.53;100.00
74242;BME280;62599;49.146;10.426;2023-04-24T06:32:23;94822.38;;;8.46;100.00
74242;BME280;62599;49.146;10.426;2023-04-24T06:34:49;94842.09;;;8.37;100.00
74242;BME280;62599;49.146;10.426;2023-04-24T06:37:14;94844.41;;;8.27;100.00
74242;BME280;62599;49.146;10.426;2023-04-24T06:39:44;94845.66;;;8.29;100.00
74242;BME280;62599;49.146;10.426;2023-04-24T06:42:09;94839.59;;;8.20;100.00
74242;BME280;62599;49.146;10.426;2023-04-24T06:44:35;94843.41;;;8.31;100.00
74242;BME280;62599;49.146;10.426;2023-04-24T06:47:06;94847.44;;;8.50;100.00
74242;BME280;62599;49.146;10.426;2023-04-24T06:49:32;94849.44;;;8.53;100.00
74242;BME280;62599;49.146;10.426;2023-04-24T06:51:57;94853.31;;;8.67;100.00
74242;BME280;62599;49.146;10.426;2023-04-24T06:54:23;94845.66;;;8.54;100.00
74242;BME280;62599;49.146;10.426;2023-04-24T06:56:48;94860.38;;;8.72;100.00
74242;BME280;62599;49.146;10.426;2023-04-24T06:59:15;94865.75;;;8.72;100.00
74242;BME280;62599;49.146;10.426;2023-04-24T07:01:40;94872.03;;;8.92;100.00
74242;BME280;62599;49.146;10.426;2023-04-24T07:04:08;94871.16;;;8.88;100.00
74242;BME280;62599;49.146;10.426;2023-04-24T07:06:37;94864.25;;;8.87;100.00
74242;BME280;62599;49.146;10.426;2023-04-24T07:09:02;94863.25;;;8.79;100.00
74242;BME280;62599;49.146;10.426;2023-04-24T07:11:28;94869.16;;;8.85;100.00
74242;BME280;62599;49.146;10.426;2023-04-24T07:13:55;94876.09;;;8.86;100.00
74242;BME280;62599;49.146;10.426;2023-04-24T07:16:21;94877.56;;;8.83;100.00
74242;BME280;62599;49.146;10.426;2023-04-24T07:18:46;94877.53;;;8.96;100.00
74242;BME280;62599;49.146;10.426;2023-04-24T07:21:12;94857.94;;;8.95;100.00
74242;BME280;62599;49.146;10.426;2023-04-24T07:23:38;94865.03;;;8.87;100.00
74242;BME280;62599;49.146;10.426;2023-04-24T07:26:03;94864.47;;;8.82;100.00
74242;BME280;62599;49.146;10.426;2023-04-24T07:28:29;94878.13;;;8.77;100.00
74242;BME280;62599;49.146;10.426;2023-04-24T07:30:56;94881.81;;;8.84;100.00
74242;BME280;62599;49.146;10.426;2023-04-24T07:33:22;94870.19;;;8.80;100.00
74242;BME280;62599;49.146;10.426;2023-04-24T07:35:48;94864.81;;;8.80;100.00
74242;BME280;62599;49.146;10.426;2023-04-24T07:38:13;94869.94;;;8.85;100.00
74242;BME280;62599;49.146;10.426;2023-04-24T07:40:38;94868.97;;;9.06;100.00
74242;BME280;62599;49.146;10.426;2023-04-24T07:43:04;94877.81;;;9.34;100.00
74242;BME280;62599;49.146;10.426;2023-04-24T07:45:30;94870.50;;;9.63;100.00
74242;BME280;62599;49.146;10.426;2023-04-24T07:47:56;94878.31;;;9.84;100.00
74242;BME280;62599;49.146;10.426;2023-04-24T07:50:25;94868.16;;;10.09;94.57
74242;BME280;62599;49.146;10.426;2023-04-24T07:52:50;94873.47;;;10.21;91.69
74242;BME280;62599;49.146;10.426;2023-04-24T07:55:16;94873.72;;;10.16;87.35
74242;BME280;62599;49.146;10.426;2023-04-24T07:57:41;94883.31;;;10.29;88.43
74242;BME280;62599;49.146;10.426;2023-04-24T08:00:07;94870.34;;;10.70;89.15
74242;BME280;62599;49.146;10.426;2023-04-24T08:02:33;94882.59;;;11.03;84.69
74242;BME280;62599;49.146;10.426;2023-04-24T08:04:58;94883.88;;;11.09;84.67
74242;BME280;62599;49.146;10.426;2023-04-24T08:07:23;94877.69;;;10.89;82.09
74242;BME280;62599;49.146;10.426;2023-04-24T08:09:49;94899.13;;;10.66;81.65
74242;BME280;62599;49.146;10.426;2023-04-24T08:12:15;94898.31;;;10.46;82.10
74242;BME280;62599;49.146;10.426;2023-04-24T08:14:43;94890.03;;;10.23;84.01
74242;BME280;62599;49.146;10.426;2023-04-24T08:17:09;94894.72;;;9.95;86.73
74242;BME280;62599;49.146;10.426;2023-04-24T08:19:34;94904.03;;;9.97;88.88
74242;BME280;62599;49.146;10.426;2023-04-24T08:21:59;94895.63;;;9.99;85.92
74242;BME280;62599;49.146;10.426;2023-04-24T08:24:26;94885.47;;;10.40;84.85
74242;BME280;62599;49.146;10.426;2023-04-24T08:26:52;94891.97;;;10.90;84.34
74242;BME280;62599;49.146;10.426;2023-04-24T08:29:19;94892.66;;;10.87;79.56
74242;BME280;62599;49.146;10.426;2023-04-24T08:31:47;94900.28;;;10.65;79.77
74242;BME280;62599;49.146;10.426;2023-04-24T08:34:12;94899.69;;;10.91;82.88
74242;BME280;62599;49.146;10.426;2023-04-24T08:36:38;94894.94;;;11.43;83.50
74242;BME280;62599;49.146;10.426;2023-04-24T08:39:05;94895.91;;;11.54;75.38
74242;BME280;62599;49.146;10.426;2023-04-24T08:41:33;94913.19;;;11.30;75.89
74242;BME280;62599;49.146;10.426;2023-04-24T08:43:59;94902.53;;;11.56;75.59
74242;BME280;62599;49.146;10.426;2023-04-24T08:46:27;94892.59;;;12.03;76.20
74242;BME280;62599;49.146;10.426;2023-04-24T08:48:52;94903.91;;;12.12;73.48
74242;BME280;62599;49.146;10.426;2023-04-24T08:51:18;94890.72;;;12.07;73.45
74242;BME280;62599;49.146;10.426;2023-04-24T08:53:46;94882.25;;;12.09;72.05
74242;BME280;62599;49.146;10.426;2023-04-24T08:56:12;94883.47;;;11.88;68.84
74242;BME280;62599;49.146;10.426;2023-04-24T08:58:39;94890.19;;;11.78;69.61
74242;BME280;62599;49.146;10.426;2023-04-24T09:01:05;94882.03;;;11.75;69.29
74242;BME280;62599;49.146;10.426;2023-04-24T09:03:33;94902.84;;;11.94;70.30
74242;BME280;62599;49.146;10.426;2023-04-24T09:05:58;94894.38;;;12.18;69.11
74242;BME280;62599;49.146;10.426;2023-04-24T09:08:26;94878.19;;;12.18;64.98
74242;BME280;62599;49.146;10.426;2023-04-24T09:10:52;94891.03;;;11.82;66.79
74242;BME280;62599;49.146;10.426;2023-04-24T09:13:19;94894.63;;;11.67;67.46
74242;BME280;62599;49.146;10.426;2023-04-24T09:15:45;94899.31;;;11.70;68.63
74242;BME280;62599;49.146;10.426;2023-04-24T09:18:11;94888.34;;;12.02;66.42
74242;BME280;62599;49.146;10.426;2023-04-24T09:20:57;94881.72;;;12.49;61.74
74242;BME280;62599;49.146;10.426;2023-04-24T09:23:43;94893.66;;;12.21;61.66
74242;BME280;62599;49.146;10.426;2023-04-24T09:26:09;94901.81;;;12.25;63.61
74242;BME280;62599;49.146;10.426;2023-04-24T09:28:37;94909.13;;;12.01;61.78
74242;BME280;62599;49.146;10.426;2023-04-24T09:31:08;94895.88;;;11.93;64.11
74242;BME280;62599;49.146;10.426;2023-04-24T09:33:35;94905.72;;;11.62;64.64
74242;BME280;62599;49.146;10.426;2023-04-24T09:36:00;94894.59;;;11.05;65.44
74242;BME280;62599;49.146;10.426;2023-04-24T09:38:34;94901.75;;;10.98;66.18
74242;BME280;62599;49.146;10.426;2023-04-24T09:41:04;94899.47;;;11.00;67.56
74242;BME280;62599;49.146;10.426;2023-04-24T09:43:30;94901.69;;;11.14;65.29
74242;BME280;62599;49.146;10.426;2023-04-24T09:45:57;94903.88;;;11.47;65.80
74242;BME280;62599;49.146;10.426;2023-04-24T09:48:34;94900.31;;;12.04;61.51
74242;BME280;62599;49.146;10.426;2023-04-24T09:51:02;94885.63;;;12.51;57.85
74242;BME280;62599;49.146;10.426;2023-04-24T09:53:29;94903.38;;;12.26;57.53
74242;BME280;62599;49.146;10.426;2023-04-24T09:55:55;94905.53;;;11.94;58.29
74242;BME280;62599;49.146;10.426;2023-04-24T09:58:25;94917.69;;;11.65;58.55
74242;BME280;62599;49.146;10.426;2023-04-24T10:00:53;94902.84;;;11.94;58.19
74242;BME280;62599;49.146;10.426;2023-04-24T10:03:19;94904.69;;;12.36;56.34
74242;BME280;62599;49.146;10.426;2023-04-24T10:05:46;94907.28;;;12.28;56.06
74242;BME280;62599;49.146;10.426;2023-04-24T10:08:12;94912.78;;;11.90;54.11
74242;BME280;62599;49.146;10.426;2023-04-24T10:10:43;94895.84;;;11.70;57.88
74242;BME280;62599;49.146;10.426;2023-04-24T10:13:13;94912.31;;;11.65;57.04
74242;BME280;62599;49.146;10.426;2023-04-24T10:15:40;94900.47;;;11.69;55.02
74242;BME280;62599;49.146;10.426;2023-04-24T10:18:07;94910.25;;;11.58;57.01
74242;BME280;62599;49.146;10.426;2023-04-24T10:20:35;94912.22;;;11.80;55.46
74242;BME280;62599;49.146;10.426;2023-04-24T10:23:01;94908.41;;;12.04;54.13
74242;BME280;62599;49.146;10.426;2023-04-24T10:25:28;94893.34;;;12.49;55.04
74242;BME280;62599;49.146;10.426;2023-04-24T10:27:58;94919.09;;;12.70;52.99
74242;BME280;62599;49.146;10.426;2023-04-24T10:30:32;94921.91;;;12.77;52.39
74242;BME280;62599;49.146;10.426;2023-04-24T10:33:05;94935.63;;;13.21;51.73
74242;BME280;62599;49.146;10.426;2023-04-24T10:35:34;94932.78;;;12.81;55.58
74242;BME280;62599;49.146;10.426;2023-04-24T10:38:23;94927.84;;;11.91;58.52
74242;BME280;62599;49.146;10.426;2023-04-24T10:40:50;94947.94;;;11.74;61.01
74242;BME280;62599;49.146;10.426;2023-04-24T10:43:17;94937.88;;;11.51;60.89
74242;BME280;62599;49.146;10.426;2023-04-24T10:46:03;94938.22;;;11.11;62.11
74242;BME280;62599;49.146;10.426;2023-04-24T10:48:29;94937.22;;;11.19;62.65
74242;BME280;62599;49.146;10.426;2023-04-24T10:50:54;94952.00;;;11.45;61.31
74242;BME280;62599;49.146;10.426;2023-04-24T10:53:24;94930.84;;;11.86;60.27
74242;BME280;62599;49.146;10.426;2023-04-24T10:56:08;94940.53;;;12.33;56.54
74242;BME280;62599;49.146;10.426;2023-04-24T10:58:42;94949.81;;;12.85;55.69
74242;BME280;62599;49.146;10.426;2023-04-24T11:01:31;94965.03;;;12.70;54.18
74242;BME280;62599;49.146;10.426;2023-04-24T11:04:02;94977.03;;;12.03;56.67
74242;BME280;62599;49.146;10.426;2023-04-24T11:06:37;94972.81;;;12.25;57.91
74242;BME280;62599;49.146;10.426;2023-04-24T11:11:29;94985.75;;;12.16;55.93
74242;BME280;62599;49.146;10.426;2023-04-24T11:16:28;94986.22;;;12.91;56.48
74242;BME280;62599;49.146;10.426;2023-04-24T11:19:26;94981.50;;;13.37;55.57
74242;BME280;62599;49.146;10.426;2023-04-24T11:22:04;94978.28;;;13.92;54.56
74242;BME280;62599;49.146;10.426;2023-04-24T11:24:48;94977.66;;;13.72;53.96
74242;BME280;62599;49.146;10.426;2023-04-24T11:27:19;94974.69;;;13.81;55.62
74242;BME280;62599;49.146;10.426;2023-04-24T11:32:26;94980.06;;;12.94;52.08
74242;BME280;62599;49.146;10.426;2023-04-24T11:34:54;94981.38;;;12.54;54.47
74242;BME280;62599;49.146;10.426;2023-04-24T11:37:25;94982.94;;;12.32;56.33
74242;BME280;62599;49.146;10.426;2023-04-24T11:39:57;94989.63;;;12.38;57.86
74242;BME280;62599;49.146;10.426;2023-04-24T11:42:25;94985.72;;;12.36;58.42
74242;BME280;62599;49.146;10.426;2023-04-24T11:44:55;94992.13;;;12.73;57.04
74242;BME280;62599;49.146;10.426;2023-04-24T11:47:30;94985.16;;;12.72;53.67
74242;BME280;62599;49.146;10.426;2023-04-24T11:49:57;94992.41;;;12.45;53.55
74242;BME280;62599;49.146;10.426;2023-04-24T11:52:23;94988.47;;;12.62;54.87
74242;BME280;62599;49.146;10.426;2023-04-24T11:54:51;94998.66;;;12.72;54.72
74242;BME280;62599;49.146;10.426;2023-04-24T11:57:21;95002.81;;;12.43;54.52
74242;BME280;62599;49.146;10.426;2023-04-24T11:59:48;95020.00;;;12.12;56.48
74242;BME280;62599;49.146;10.426;2023-04-24T12:02:23;95029.22;;;11.53;58.83
74242;BME280;62599;49.146;10.426;2023-04-24T12:04:55;95033.28;;;11.27;61.16
74242;BME280;62599;49.146;10.426;2023-04-24T12:07:22;95055.84;;;11.03;62.68
74242;BME280;62599;49.146;10.426;2023-04-24T12:09:55;95046.72;;;10.92;62.22
74242;BME280;62599;49.146;10.426;2023-04-24T12:12:20;95031.63;;;10.72;61.72
74242;BME280;62599;49.146;10.426;2023-04-24T12:14:53;95033.38;;;10.64;62.11
74242;BME280;62599;49.146;10.426;2023-04-24T12:17:33;95030.03;;;10.71;60.89
74242;BME280;62599;49.146;10.426;2023-04-24T12:20:06;95050.34;;;11.16;59.82
74242;BME280;62599;49.146;10.426;2023-04-24T12:22:51;95049.03;;;11.61;60.06
74242;BME280;62599;49.146;10.426;2023-04-24T12:25:20;95047.47;;;11.79;57.94
74242;BME280;62599;49.146;10.426;2023-04-24T12:27:46;95039.94;;;11.49;59.89
74242;BME280;62599;49.146;10.426;2023-04-24T12:30:16;95044.63;;;11.52;59.93
74242;BME280;62599;49.146;10.426;2023-04-24T12:32:42;95036.75;;;11.82;61.98
74242;BME280;62599;49.146;10.426;2023-04-24T12:35:08;95035.28;;;12.24;59.47
74242;BME280;62599;49.146;10.426;2023-04-24T12:37:34;95042.00;;;12.34;57.35
74242;BME280;62599;49.146;10.426;2023-04-24T12:40:07;95041.38;;;12.86;58.19
74242;BME280;62599;49.146;10.426;2023-04-24T12:42:33;95039.56;;;13.20;56.43
74242;BME280;62599;49.146;10.426;2023-04-24T12:45:04;95043.19;;;13.05;53.97
74242;BME280;62599;49.146;10.426;2023-04-24T12:47:31;95047.88;;;13.08;54.76
74242;BME280;62599;49.146;10.426;2023-04-24T12:49:56;95048.34;;;12.64;56.19
74242;BME280;62599;49.146;10.426;2023-04-24T12:52:23;95062.69;;;12.26;57.47
74242;BME280;62599;49.146;10.426;2023-04-24T12:54:50;95068.28;;;11.78;58.90
74242;BME280;62599;49.146;10.426;2023-04-24T12:57:17;95079.31;;;11.19;59.58
74242;BME280;62599;49.146;10.426;2023-04-24T12:59:43;95067.09;;;10.90;60.98
74242;BME280;62599;49.146;10.426;2023-04-24T13:02:12;95075.22;;;10.77;61.27
74242;BME280;62599;49.146;10.426;2023-04-24T13:04:37;95066.09;;;10.66;62.36
74242;BME280;62599;49.146;10.426;2023-04-24T13:07:03;95079.41;;;10.59;63.69
74242;BME280;62599;49.146;10.426;2023-04-24T13:09:28;95085.41;;;10.24;66.37
74242;BME280;62599;49.146;10.426;2023-04-24T13:11:54;95081.84;;;9.80;67.03
74242;BME280;62599;49.146;10.426;2023-04-24T13:14:21;95076.91;;;9.42;71.79
74242;BME280;62599;49.146;10.426;2023-04-24T13:16:47;95088.91;;;9.20;74.66
74242;BME280;62599;49.146;10.426;2023-04-24T13:19:12;95072.56;;;9.25;74.58
74242;BME280;62599;49.146;10.426;2023-04-24T13:21:37;95081.34;;;9.62;72.68
74242;BME280;62599;49.146;10.426;2023-04-24T13:24:03;95073.94;;;10.27;72.01
74242;BME280;62599;49.146;10.426;2023-04-24T13:26:30;95075.22;;;10.77;69.97
74242;BME280;62599;49.146;10.426;2023-04-24T13:28:55;95061.94;;;11.00;67.95
74242;BME280;62599;49.146;10.426;2023-04-24T13:31:21;95070.53;;;11.06;64.92
74242;BME280;62599;49.146;10.426;2023-04-24T13:33:48;95059.72;;;11.22;65.41
74242;BME280;62599;49.146;10.426;2023-04-24T13:36:13;95049.50;;;11.47;66.12